SSA weather

Deputado Luiz Eduardo Magalhães International Airport
Salvador, Bahia, Brazil

Public forecast

Using degrees Celsius for public forecast. Weather courtesy of forecast.io.

Current aviation weather report (METAR) for Deputado Luiz Eduardo Magalhães International Airport

Retrieved 2019/12/14 04:00 UTC (37 minutes ago):

SBSV 140400Z 10004KT 9999 FEW020 27/23 Q1013

Aviation forecast (TAF) for Deputado Luiz Eduardo Magalhães International Airport

Retrieved 2019-12-14 00:00 UTC (5 hours ago):

TAF SBSV 132200Z 1400/1424 10012KT 9999 SCT020 TN26/1405Z TX30/1414Z BECMG 1405/1407 13007KT BECMG 1409/1410 8000 BKN015 PROB30 1410/1412 4500 SHRA BKN015 FEW025TCU BECMG 1413/1414 13014KT BECMG 1418/1419 SCT020 RMK PEU